OOCL Hamburg — VRZK9 — position and weather

sailwx.info

Track history (hours):
 
Tides and Currents Weather Stations Pressure Air Temp Water Temp Dewpoint Dewpoint Depression Visibility Wind Speed Wind Dir Waves Ship Positions

OOCL Hamburg

Last reported at 2016-Jan-30 23:29 UTC. Time now 2016-Feb-10 10:52 UTC.
Position N 31°14' E 122°05'.
Warning: this ship's position is 10 days out of date.

Length 323 m; beam 42.8 m; draft 14.5 m.

Type: Cargo ship. MMSI: 477702000.

Date/timePositionNaut miles runAvg speedWind from/ knotsBaromVisibWave heightAir tempDewpointWater temp
2016-Jan-30 23:29N 31°14' E 122°05'1314.3
2016-Jan-30 22:33N 31°17' E 121°50'1313.1
2016-Jan-30 21:33N 31°22' E 121°36'1 0.5
2016-Jan-30 19:26N 31°22' E 121°35'0 0.0
2016-Jan-30 18:20N 31°22' E 121°35'0 0.0
2016-Jan-30 17:29N 31°22' E 121°35'0 0.0
2016-Jan-30 16:32N 31°22' E 121°35'0 0.0
2016-Jan-30 15:26N 31°22' E 121°35'0 0.0
2016-Jan-30 14:32N 31°22' E 121°35'0 0.0
2016-Jan-30 13:26N 31°22' E 121°35'0 0.0
2016-Jan-30 12:23N 31°22' E 121°35'0 0.0
2016-Jan-30 11:26N 31°22' E 121°35'0 0.0
2016-Jan-30 10:26N 31°22' E 121°35'0 0.0
2016-Jan-30 09:32N 31°22' E 121°35'0 0.0
2016-Jan-30 08:08N 31°22' E 121°35'0 0.1
2016-Jan-30 07:33N 31°22' E 121°35'2 1.9
2016-Jan-30 06:33N 31°22' E 121°37'1010.1
2016-Jan-30 05:33N 31°18' E 121°48'1313.3
2016-Jan-30 04:33N 31°14' E 122°03'  
2016-Jan-26 16:11N 22°55' E 119°59'1219.6
2016-Jan-26 15:33N 22°44' E 120°05'1616.1
2016-Jan-26 14:33N 22°33' E 120°18'1 1.0
2016-Jan-26 13:15N 22°34' E 120°19'0 0.0
2016-Jan-26 12:33N 22°34' E 120°19'0 0.0
2016-Jan-26 11:33N 22°34' E 120°19'0 0.0
2016-Jan-26 10:21N 22°34' E 120°19'0 0.0
2016-Jan-26 09:27N 22°34' E 120°19'0 0.0
2016-Jan-26 05:33N 22°34' E 120°19'0 0.0
2016-Jan-26 04:27N 22°34' E 120°19'0 0.0
2016-Jan-26 03:27N 22°34' E 120°19'0 0.0
2016-Jan-26 02:27N 22°34' E 120°19'0 0.0
2016-Jan-26 01:33N 22°34' E 120°19'0 0.0
2016-Jan-26 00:21N 22°34' E 120°19'0 0.0
2016-Jan-25 23:27N 22°34' E 120°19'0 0.0
2016-Jan-25 22:33N 22°34' E 120°19'0 0.0
2016-Jan-25 21:27N 22°34' E 120°19'1 0.9
2016-Jan-25 20:33N 22°33' E 120°19'9 8.8
2016-Jan-25 19:34N 22°31' E 120°10'1616.1
2016-Jan-25 18:33N 22°27' E 119°53'29315.4
2016-Jan-24 23:31N 22°18' E 114°36'25 2.0
2016-Jan-24 11:22N 22°34' E 114°16'0 0.0
2016-Jan-24 10:22N 22°34' E 114°16'0 0.0
2016-Jan-24 09:22N 22°34' E 114°16'0 0.0
2016-Jan-24 08:10N 22°34' E 114°16'0 0.0
2016-Jan-24 07:28N 22°34' E 114°16'0 0.0
2016-Jan-23 20:04N 22°34' E 114°16'0 0.0
2016-Jan-23 19:28N 22°34' E 114°16'0 0.0
2016-Jan-23 18:16N 22°34' E 114°16'0 0.0
2016-Jan-23 07:33N 22°34' E 114°16'2110.5
2016-Jan-23 05:30N 22°16' E 114°29'1313.5
2016-Jan-23 04:32N 22°07' E 114°19'1511.2
2016-Jan-23 03:09N 22°16' E 114°06'3 5.9
2016-Jan-23 02:33N 22°20' E 114°08'0 0.0
2016-Jan-23 01:28N 22°20' E 114°08'0 0.0
2016-Jan-23 00:31N 22°20' E 114°08'0 0.0
2016-Jan-22 23:31N 22°20' E 114°08'0 0.0
2016-Jan-22 22:31N 22°20' E 114°08'0 0.0
2016-Jan-22 21:31N 22°20' E 114°08'0 0.0
2016-Jan-22 20:31N 22°20' E 114°08'0 0.0
2016-Jan-22 19:28N 22°20' E 114°08'0 0.0
2016-Jan-22 18:28N 22°20' E 114°08'0 0.0
2016-Jan-22 17:31N 22°20' E 114°08'0 0.0
2016-Jan-22 16:25N 22°20' E 114°08'0 0.0
2016-Jan-22 15:28N 22°20' E 114°08'0 0.0
2016-Jan-22 14:31N 22°20' E 114°08'0 0.0
2016-Jan-22 13:28N 22°20' E 114°08'0 0.0
2016-Jan-22 12:22N 22°20' E 114°08'0 0.0
2016-Jan-22 11:31N 22°20' E 114°08'0 0.0
2016-Jan-22 10:31N 22°20' E 114°08'0 0.0
2016-Jan-22 09:28N 22°20' E 114°08'0 0.0
2016-Jan-22 08:22N 22°20' E 114°08'0 0.0
2016-Jan-22 07:29N 22°20' E 114°08'3 2.7
2016-Jan-22 06:34N 22°18' E 114°06'1110.2
2016-Jan-22 05:28N 22°09' E 114°14'1212.9
2016-Jan-22 04:32N 22°08' E 114°27'13817.2
2016-Jan-21 20:33N 22°50' E 116°49'2319.7
2016-Jan-21 19:22N 23°03' E 117°09'3820.0
2016-Jan-21 17:29N 23°28' E 117°40'2120.2
2016-Jan-21 16:28N 23°41' E 117°58'2420.1
2016-Jan-21 15:15N 23°56' E 118°19'1420.5
2016-Jan-21 14:33N 24°05' E 118°31'4020.0
2016-Jan-21 12:33N 24°29' E 119°06'  
Track history (hours):
 
Tides and Currents Weather Stations Pressure Air Temp Water Temp Dewpoint Dewpoint Depression Visibility Wind Speed Wind Dir Waves Ship Positions

OOCL Hamburg

Last reported at 2016-Jan-30 23:29 UTC. Time now 2016-Feb-10 10:52 UTC.
Position N 31°14' E 122°05'.
Warning: this ship's position is 10 days out of date.

Length 323 m; beam 42.8 m; draft 14.5 m.

Type: Cargo ship. MMSI: 477702000.

Date/timePositionNaut miles runAvg speedWind from/ knotsBaromVisibWave heightAir tempDewpointWater temp
2016-Jan-30 23:29N 31°14' E 122°05'1314.3
2016-Jan-30 22:33N 31°17' E 121°50'1313.1
2016-Jan-30 21:33N 31°22' E 121°36'1 0.5
2016-Jan-30 19:26N 31°22' E 121°35'0 0.0
2016-Jan-30 18:20N 31°22' E 121°35'0 0.0
2016-Jan-30 17:29N 31°22' E 121°35'0 0.0
2016-Jan-30 16:32N 31°22' E 121°35'0 0.0
2016-Jan-30 15:26N 31°22' E 121°35'0 0.0
2016-Jan-30 14:32N 31°22' E 121°35'0 0.0
2016-Jan-30 13:26N 31°22' E 121°35'0 0.0
2016-Jan-30 12:23N 31°22' E 121°35'0 0.0
2016-Jan-30 11:26N 31°22' E 121°35'0 0.0
2016-Jan-30 10:26N 31°22' E 121°35'0 0.0
2016-Jan-30 09:32N 31°22' E 121°35'0 0.0
2016-Jan-30 08:08N 31°22' E 121°35'0 0.1
2016-Jan-30 07:33N 31°22' E 121°35'2 1.9
2016-Jan-30 06:33N 31°22' E 121°37'1010.1
2016-Jan-30 05:33N 31°18' E 121°48'1313.3
2016-Jan-30 04:33N 31°14' E 122°03'  
2016-Jan-26 16:11N 22°55' E 119°59'1219.6
2016-Jan-26 15:33N 22°44' E 120°05'1616.1
2016-Jan-26 14:33N 22°33' E 120°18'1 1.0
2016-Jan-26 13:15N 22°34' E 120°19'0 0.0
2016-Jan-26 12:33N 22°34' E 120°19'0 0.0
2016-Jan-26 11:33N 22°34' E 120°19'0 0.0
2016-Jan-26 10:21N 22°34' E 120°19'0 0.0
2016-Jan-26 09:27N 22°34' E 120°19'0 0.0
2016-Jan-26 05:33N 22°34' E 120°19'0 0.0
2016-Jan-26 04:27N 22°34' E 120°19'0 0.0
2016-Jan-26 03:27N 22°34' E 120°19'0 0.0
2016-Jan-26 02:27N 22°34' E 120°19'0 0.0
2016-Jan-26 01:33N 22°34' E 120°19'0 0.0
2016-Jan-26 00:21N 22°34' E 120°19'0 0.0
2016-Jan-25 23:27N 22°34' E 120°19'0 0.0
2016-Jan-25 22:33N 22°34' E 120°19'0 0.0
2016-Jan-25 21:27N 22°34' E 120°19'1 0.9
2016-Jan-25 20:33N 22°33' E 120°19'9 8.8
2016-Jan-25 19:34N 22°31' E 120°10'1616.1
2016-Jan-25 18:33N 22°27' E 119°53'29315.4
2016-Jan-24 23:31N 22°18' E 114°36'25 2.0
2016-Jan-24 11:22N 22°34' E 114°16'0 0.0
2016-Jan-24 10:22N 22°34' E 114°16'0 0.0
2016-Jan-24 09:22N 22°34' E 114°16'0 0.0
2016-Jan-24 08:10N 22°34' E 114°16'0 0.0
2016-Jan-24 07:28N 22°34' E 114°16'0 0.0
2016-Jan-23 20:04N 22°34' E 114°16'0 0.0
2016-Jan-23 19:28N 22°34' E 114°16'0 0.0
2016-Jan-23 18:16N 22°34' E 114°16'0 0.0
2016-Jan-23 07:33N 22°34' E 114°16'2110.5
2016-Jan-23 05:30N 22°16' E 114°29'1313.5
2016-Jan-23 04:32N 22°07' E 114°19'1511.2
2016-Jan-23 03:09N 22°16' E 114°06'3 5.9
2016-Jan-23 02:33N 22°20' E 114°08'0 0.0
2016-Jan-23 01:28N 22°20' E 114°08'0 0.0
2016-Jan-23 00:31N 22°20' E 114°08'0 0.0
2016-Jan-22 23:31N 22°20' E 114°08'0 0.0
2016-Jan-22 22:31N 22°20' E 114°08'0 0.0
2016-Jan-22 21:31N 22°20' E 114°08'0 0.0
2016-Jan-22 20:31N 22°20' E 114°08'0 0.0
2016-Jan-22 19:28N 22°20' E 114°08'0 0.0
2016-Jan-22 18:28N 22°20' E 114°08'0 0.0
2016-Jan-22 17:31N 22°20' E 114°08'0 0.0
2016-Jan-22 16:25N 22°20' E 114°08'0 0.0
2016-Jan-22 15:28N 22°20' E 114°08'0 0.0
2016-Jan-22 14:31N 22°20' E 114°08'0 0.0
2016-Jan-22 13:28N 22°20' E 114°08'0 0.0
2016-Jan-22 12:22N 22°20' E 114°08'0 0.0
2016-Jan-22 11:31N 22°20' E 114°08'0 0.0
2016-Jan-22 10:31N 22°20' E 114°08'0 0.0
2016-Jan-22 09:28N 22°20' E 114°08'0 0.0
2016-Jan-22 08:22N 22°20' E 114°08'0 0.0
2016-Jan-22 07:29N 22°20' E 114°08'3 2.7
2016-Jan-22 06:34N 22°18' E 114°06'1110.2
2016-Jan-22 05:28N 22°09' E 114°14'1212.9
2016-Jan-22 04:32N 22°08' E 114°27'13817.2
2016-Jan-21 20:33N 22°50' E 116°49'2319.7
2016-Jan-21 19:22N 23°03' E 117°09'3820.0
2016-Jan-21 17:29N 23°28' E 117°40'2120.2
2016-Jan-21 16:28N 23°41' E 117°58'2420.1
2016-Jan-21 15:15N 23°56' E 118°19'1420.5
2016-Jan-21 14:33N 24°05' E 118°31'4020.0
2016-Jan-21 12:33N 24°29' E 119°06'  

Dump ship's entire track history